SAS735 EPKK-EPGD
Flight info
| Callsign | SAS735 |
|---|---|
| Flight time | N/A |
| Altitude | 17000 |
| Route | NAVUR N744 OVBOR/N0270F180 N133 GRUDA Z95 OSLOG |
| Aircraft | AT76/M-SDFGIRY/S |
Departure
| Time | 2026-04-30 14:38 |
|---|---|
| Airport | Kraków John Paul II International Airport (EPKK) |
Arrival
| Time | N/A |
|---|---|
| Airport | Gdańsk Lech Wałęsa Airport (EPGD) |
| Time | Latitude | Longitude | Altitude | Speed | Heading |
|---|---|---|---|---|---|
| 2026-04-30 14:19 | 50.07601 | 19.80229 | 787 ft | 0 kts | 347° |
| 2026-04-30 14:35 | 50.07634 | 19.80230 | 787 ft | 7 kts | 25° |
| 2026-04-30 14:36 | 50.07661 | 19.80335 | 787 ft | 12 kts | 78° |
| 2026-04-30 14:36 | 50.07734 | 19.80374 | 787 ft | 17 kts | 345° |
| 2026-04-30 14:36 | 50.07838 | 19.80337 | 787 ft | 0 kts | 347° |
| 2026-04-30 14:37 | 50.07863 | 19.80329 | 787 ft | 10 kts | 347° |
| 2026-04-30 14:37 | 50.07964 | 19.80294 | 786 ft | 19 kts | 345° |
| 2026-04-30 14:37 | 50.08008 | 19.80161 | 786 ft | 0 kts | 258° |
| 2026-04-30 14:37 | 50.08006 | 19.80139 | 786 ft | 17 kts | 258° |
| 2026-04-30 14:38 | 50.07927 | 19.79574 | 787 ft | 87 kts | 258° |
| 2026-04-30 14:38 | 50.07775 | 19.78381 | 800 ft | 132 kts | 256° |
| 2026-04-30 14:38 | 50.07497 | 19.76975 | 1114 ft | 138 kts | 256° |
| 2026-04-30 14:38 | 50.07214 | 19.75585 | 1588 ft | 132 kts | 257° |
| 2026-04-30 14:39 | 50.07041 | 19.74206 | 2113 ft | 129 kts | 266° |
| 2026-04-30 14:39 | 50.06898 | 19.72815 | 2622 ft | 138 kts | 265° |
| 2026-04-30 14:39 | 50.06701 | 19.71220 | 2979 ft | 155 kts | 264° |
| 2026-04-30 14:40 | 50.06333 | 19.68045 | 4342 ft | 146 kts | 263° |
| 2026-04-30 14:40 | 50.06126 | 19.66505 | 4981 ft | 145 kts | 262° |
| 2026-04-30 14:40 | 50.05965 | 19.64971 | 5491 ft | 142 kts | 283° |
| 2026-04-30 14:40 | 50.06531 | 19.63855 | 5946 ft | 136 kts | 339° |
| 2026-04-30 14:41 | 50.07418 | 19.63301 | 6468 ft | 137 kts | 341° |
| 2026-04-30 14:41 | 50.08320 | 19.62823 | 6982 ft | 137 kts | 346° |
| 2026-04-30 14:41 | 50.09246 | 19.62459 | 7517 ft | 136 kts | 349° |
| 2026-04-30 14:41 | 50.10172 | 19.62147 | 7938 ft | 145 kts | 351° |
| 2026-04-30 14:42 | 50.11256 | 19.61816 | 7980 ft | 171 kts | 351° |
| 2026-04-30 14:42 | 50.12507 | 19.61446 | 8002 ft | 194 kts | 351° |
| 2026-04-30 14:42 | 50.13870 | 19.61271 | 7991 ft | 205 kts | 12° |
| 2026-04-30 14:42 | 50.15138 | 19.62380 | 7998 ft | 218 kts | 38° |
| 2026-04-30 14:43 | 50.16300 | 19.63990 | 7973 ft | 227 kts | 41° |
| 2026-04-30 14:43 | 50.17469 | 19.65706 | 7986 ft | 232 kts | 41° |
| 2026-04-30 14:43 | 50.18649 | 19.67419 | 7977 ft | 231 kts | 40° |
| 2026-04-30 14:43 | 50.19839 | 19.69101 | 7982 ft | 231 kts | 40° |
| 2026-04-30 14:44 | 50.21043 | 19.70752 | 8032 ft | 228 kts | 40° |
| 2026-04-30 14:44 | 50.22214 | 19.72349 | 8284 ft | 218 kts | 39° |
| 2026-04-30 14:44 | 50.23327 | 19.73868 | 8502 ft | 212 kts | 39° |
| 2026-04-30 14:44 | 50.24434 | 19.75364 | 8713 ft | 208 kts | 39° |
| 2026-04-30 14:45 | 50.25522 | 19.76830 | 8924 ft | 206 kts | 39° |
| 2026-04-30 14:45 | 50.26602 | 19.78281 | 9111 ft | 204 kts | 39° |
| 2026-04-30 14:45 | 50.27673 | 19.79732 | 9288 ft | 203 kts | 40° |
| 2026-04-30 14:45 | 50.28738 | 19.81178 | 9448 ft | 202 kts | 39° |
| 2026-04-30 14:46 | 50.29796 | 19.82623 | 9633 ft | 202 kts | 40° |
| 2026-04-30 14:46 | 50.30851 | 19.84064 | 9807 ft | 201 kts | 40° |
| 2026-04-30 14:46 | 50.31908 | 19.85507 | 9953 ft | 201 kts | 40° |
| 2026-04-30 14:46 | 50.32606 | 19.86453 | 10061 ft | 201 kts | 40° |
| 2026-04-30 14:47 | 50.34008 | 19.88382 | 10264 ft | 200 kts | 40° |
| 2026-04-30 14:47 | 50.35061 | 19.89806 | 10411 ft | 198 kts | 36° |
| 2026-04-30 14:47 | 50.36363 | 19.90430 | 10428 ft | 203 kts | 1° |
| 2026-04-30 14:47 | 50.37816 | 19.90337 | 10247 ft | 215 kts | 1° |
| 2026-04-30 14:48 | 50.39291 | 19.90276 | 10523 ft | 204 kts | 1° |
| 2026-04-30 14:48 | 50.40688 | 19.90231 | 10762 ft | 199 kts | 2° |
| 2026-04-30 14:48 | 50.42078 | 19.90228 | 10867 ft | 201 kts | 3° |
| 2026-04-30 14:48 | 50.43471 | 19.90244 | 10921 ft | 204 kts | 3° |
| 2026-04-30 14:49 | 50.44905 | 19.90259 | 10947 ft | 207 kts | 4° |
| 2026-04-30 14:49 | 50.46360 | 19.90282 | 10967 ft | 211 kts | 4° |
| 2026-04-30 14:49 | 50.47837 | 19.90314 | 10984 ft | 213 kts | 4° |
| 2026-04-30 14:49 | 50.49319 | 19.90356 | 11027 ft | 213 kts | 4° |
| 2026-04-30 14:50 | 50.52275 | 19.90431 | 11204 ft | 211 kts | 4° |
| 2026-04-30 14:50 | 50.53738 | 19.90462 | 11297 ft | 209 kts | 4° |
| 2026-04-30 14:51 | 50.56608 | 19.90508 | 11559 ft | 205 kts | 3° |
| 2026-04-30 14:51 | 50.58033 | 19.90528 | 11708 ft | 203 kts | 3° |
| 2026-04-30 14:51 | 50.60849 | 19.90565 | 11917 ft | 203 kts | 4° |
| 2026-04-30 14:52 | 50.62272 | 19.90589 | 11957 ft | 206 kts | 4° |
| 2026-04-30 14:52 | 50.65166 | 19.90636 | 12141 ft | 205 kts | 4° |
| 2026-04-30 14:52 | 50.66574 | 19.90662 | 12323 ft | 200 kts | 4° |
| 2026-04-30 14:53 | 50.69323 | 19.90720 | 12685 ft | 195 kts | 4° |
| 2026-04-30 14:53 | 50.70672 | 19.90748 | 12852 ft | 193 kts | 4° |
| 2026-04-30 14:54 | 50.73345 | 19.90804 | 13193 ft | 191 kts | 5° |
| 2026-04-30 14:54 | 50.75914 | 19.90841 | 13764 ft | 179 kts | 5° |
| 2026-04-30 14:55 | 50.78380 | 19.90882 | 14158 ft | 178 kts | 5° |
| 2026-04-30 14:55 | 50.79618 | 19.90906 | 14330 ft | 178 kts | 5° |
| 2026-04-30 14:55 | 50.82100 | 19.90946 | 14655 ft | 179 kts | 5° |
| 2026-04-30 14:56 | 50.84589 | 19.90986 | 14964 ft | 179 kts | 5° |
| 2026-04-30 14:56 | 50.87088 | 19.91031 | 15250 ft | 180 kts | 6° |
| 2026-04-30 14:57 | 50.88341 | 19.91050 | 15399 ft | 180 kts | 5° |
| 2026-04-30 14:57 | 50.90854 | 19.91066 | 15672 ft | 181 kts | 5° |
| 2026-04-30 14:58 | 50.93377 | 19.91080 | 15946 ft | 181 kts | 6° |
| 2026-04-30 14:58 | 50.94640 | 19.91088 | 16082 ft | 182 kts | 6° |
| 2026-04-30 14:58 | 50.96747 | 19.91098 | 16290 ft | 182 kts | 6° |
| 2026-04-30 14:59 | 50.99290 | 19.91110 | 16529 ft | 183 kts | 6° |
| 2026-04-30 15:00 | 51.02766 | 19.92584 | 16852 ft | 175 kts | 38° |
| 2026-04-30 15:00 | 51.04698 | 19.95056 | 16967 ft | 182 kts | 38° |
| 2026-04-30 15:01 | 51.06733 | 19.97573 | 16989 ft | 190 kts | 36° |
| 2026-04-30 15:01 | 51.07798 | 19.98849 | 16990 ft | 193 kts | 36° |
| 2026-04-30 15:01 | 51.10004 | 20.01443 | 16994 ft | 201 kts | 31° |
| 2026-04-30 15:02 | 51.11389 | 20.01800 | 16998 ft | 214 kts | 353° |
| 2026-04-30 15:02 | 51.12823 | 20.00997 | 16990 ft | 221 kts | 346° |
| 2026-04-30 15:03 | 51.17216 | 19.98351 | 17001 ft | 229 kts | 348° |
| 2026-04-30 15:03 | 51.20271 | 19.96780 | 16997 ft | 232 kts | 349° |
| 2026-04-30 15:04 | 51.23359 | 19.95185 | 16993 ft | 234 kts | 348° |
| 2026-04-30 15:04 | 51.28031 | 19.92769 | 16999 ft | 236 kts | 348° |
| 2026-04-30 15:05 | 51.32722 | 19.90336 | 16994 ft | 236 kts | 348° |
| 2026-04-30 15:06 | 51.35819 | 19.88718 | 16998 ft | 235 kts | 348° |
| 2026-04-30 15:06 | 51.38938 | 19.87105 | 16995 ft | 235 kts | 348° |
| 2026-04-30 15:07 | 51.42053 | 19.85484 | 16999 ft | 235 kts | 348° |
| 2026-04-30 15:07 | 51.45173 | 19.83853 | 16999 ft | 240 kts | 348° |
| 2026-04-30 15:08 | 51.48400 | 19.82167 | 17002 ft | 247 kts | 348° |
| 2026-04-30 15:08 | 51.53348 | 19.79573 | 17000 ft | 253 kts | 348° |
| 2026-04-30 15:09 | 51.56699 | 19.77823 | 17002 ft | 254 kts | 348° |
| 2026-04-30 15:09 | 51.60064 | 19.76057 | 17004 ft | 255 kts | 348° |
| 2026-04-30 15:10 | 51.63459 | 19.74275 | 17005 ft | 255 kts | 348° |
| 2026-04-30 15:11 | 51.70194 | 19.70732 | 17005 ft | 255 kts | 348° |
| 2026-04-30 15:11 | 51.73573 | 19.68944 | 17007 ft | 255 kts | 348° |
| 2026-04-30 15:12 | 51.78623 | 19.66265 | 17005 ft | 255 kts | 348° |
| 2026-04-30 15:13 | 51.82007 | 19.64550 | 17007 ft | 254 kts | 350° |
| 2026-04-30 15:14 | 51.88796 | 19.61232 | 17006 ft | 255 kts | 349° |
| 2026-04-30 15:14 | 51.93888 | 19.58734 | 17007 ft | 254 kts | 349° |
| 2026-04-30 15:16 | 52.02351 | 19.54576 | 17005 ft | 255 kts | 349° |
| 2026-04-30 15:17 | 52.09130 | 19.51217 | 17006 ft | 254 kts | 349° |
| 2026-04-30 15:18 | 52.17585 | 19.47042 | 17005 ft | 254 kts | 349° |
| 2026-04-30 15:19 | 52.22629 | 19.44536 | 17006 ft | 254 kts | 349° |